UUDD Airport Information

Runway Information
Runway 14C Length 8531 ft width 148 ft
Elevation 585 ft Threshold 0 ft Heading 146
Runway 32C Length 8531 ft Width 148 ft
Elevation 538 ft Threshold 0 ft Heading 326
Runway 14L Length 12448 ft width 174 ft
Elevation 551 ft Threshold 0 ft Heading 146
Runway 32R Length 12448 ft Width 174 ft
Elevation 519 ft Threshold 0 ft Heading 326
Runway 14R Length 11483 ft width 230 ft
Elevation 588 ft Threshold 0 ft Heading 146
Runway 32L Length 11483 ft Width 230 ft
Elevation 527 ft Threshold 0 ft Heading 326
Airport Frequencies
Type APP Name APP Frequency 120.6 MHZ
Type ATIS Name ATIS Frequency 128.3 MHZ
Type CLD Name DELIVERY Frequency 123.75 MHZ
Type GND Name TAXIING Frequency 119 MHZ
Type MISC Name TRANSIT Frequency 129.15 MHZ
Type PMSV Name VOLMET Frequency 127.875 MHZ
Type RDR Name KRUG Frequency 127.7 MHZ
Type RMP Name APRON Frequency 130.6 MHZ
Type TWR Name TWR Frequency 118.6 MHZ
Airport Navaids
Type NDB Name Domodedovo Frequency 437 KHZ
Type NDB Name Domodedovo Frequency 659 KHZ
Type NDB Name Domodedovo Frequency 659 KHZ
Type NDB Name Domodedovo Frequency 437 KHZ
Type NDB Name Domodedovo Frequency 887 KHZ
Type NDB Name Domodedovo Frequency 320 KHZ
Type NDB Name Domodedovo Frequency 320 KHZ
Type NDB Name Domodedovo Frequency 887 KHZ
Airport Weather Information & NOTAM
ADDS - METARS form results

(2359 UTC 18 January 2018)
 
METAR text: UUDD 182330Z 17009MPS 9999 OVC021 M03/M07 Q1010 R14R/450592 NOSIG
Conditions at: UUDD (MOSCOW/DOMODEDOV, RU) observed 2330 UTC 18 January 2018
Temperature: -3.0°C (27°F)
Dewpoint: -7.0°C (19°F) [RH = 74%]
Pressure (altimeter): 29.82 inches Hg (1010.0 mb)
Winds: from the S (170 degrees) at 20 MPH (17 knots; 8.8 m/s)
Visibility: 6 or more miles (10+ km)
Ceiling: 2100 feet AGL
Clouds: overcast cloud deck at 2100 feet AGL
Weather: no significant weather observed at this time

METAR text: UUDD 182300Z 17008MPS 9999 OVC018 M03/M06 Q1010 R14R/450592 NOSIG
Conditions at: UUDD (MOSCOW/DOMODEDOV, RU) observed 2300 UTC 18 January 2018
Temperature: -3.0°C (27°F)
Dewpoint: -6.0°C (21°F) [RH = 80%]
Pressure (altimeter): 29.82 inches Hg (1010.0 mb)
Winds: from the S (170 degrees) at 18 MPH (16 knots; 8.3 m/s)
Visibility: 6 or more miles (10+ km)
Ceiling: 1800 feet AGL
Clouds: overcast cloud deck at 1800 feet AGL
Weather: no significant weather observed at this time